Aviation Digital Data Service (ADDS)

Output produced by METARs form (0055 UTC 22 September 2017)
found at http://www.aviationweather.gov/adds/metars/
 
TGPY 212142Z 2200/2224 10012KT 9999 FEW019 
     BECMG2210/2212 12015G25KT SCT023